Terminal Aerodrome Forecast
Issued by NWS

Home | Current Version | Previous Version | Graphics & Text | Print | Product List | Glossary Off
Versions: 1 2 3 4 5 6 7 8 9 10 11 12 13 14 15 16 17 18 19 20 21 22 23

000
FTUS43 KDDC 270520
TAFGCK
TAF
KGCK 270520Z 2706/2806 33011G24KT P6SM SCT050 SCT130
      TEMPO 2709/2713 P6SM -RA BKN025
     FM272300 33010KT P6SM FEW250=

USA.gov is the U.S. government's official web portal to all federal, state and local government web resources and services.